sensor_id;sensor_type;location;lat;lon;timestamp;P1;durP1;ratioP1;P2;durP2;ratioP2
70667;SDS011;58242;51.250;-1.118;2023-06-10T00:02:11;6.72;;;4.93;;
70667;SDS011;58242;51.250;-1.118;2023-06-10T00:04:36;5.75;;;4.57;;
70667;SDS011;58242;51.250;-1.118;2023-06-10T00:07:05;7.10;;;5.43;;
70667;SDS011;58242;51.250;-1.118;2023-06-10T00:09:36;7.97;;;5.32;;
70667;SDS011;58242;51.250;-1.118;2023-06-10T00:14:29;6.53;;;5.15;;
70667;SDS011;58242;51.250;-1.118;2023-06-10T00:16:54;7.43;;;4.63;;
70667;SDS011;58242;51.250;-1.118;2023-06-10T00:19:20;4.38;;;3.97;;
70667;SDS011;58242;51.250;-1.118;2023-06-10T00:21:51;5.07;;;4.18;;
70667;SDS011;58242;51.250;-1.118;2023-06-10T00:24:17;4.65;;;4.25;;
70667;SDS011;58242;51.250;-1.118;2023-06-10T00:26:43;4.90;;;4.40;;
70667;SDS011;58242;51.250;-1.118;2023-06-10T00:29:08;6.30;;;4.78;;
70667;SDS011;58242;51.250;-1.118;2023-06-10T00:31:34;5.20;;;4.40;;
70667;SDS011;58242;51.250;-1.118;2023-06-10T00:34:00;5.22;;;4.70;;
70667;SDS011;58242;51.250;-1.118;2023-06-10T00:36:26;6.57;;;4.72;;
70667;SDS011;58242;51.250;-1.118;2023-06-10T00:38:51;6.72;;;5.13;;
70667;SDS011;58242;51.250;-1.118;2023-06-10T00:41:17;6.25;;;4.90;;
70667;SDS011;58242;51.250;-1.118;2023-06-10T00:43:43;7.53;;;5.10;;
70667;SDS011;58242;51.250;-1.118;2023-06-10T00:46:08;10.43;;;5.95;;
70667;SDS011;58242;51.250;-1.118;2023-06-10T00:48:34;7.43;;;5.30;;
70667;SDS011;58242;51.250;-1.118;2023-06-10T00:51:00;8.27;;;5.30;;
70667;SDS011;58242;51.250;-1.118;2023-06-10T00:53:26;7.35;;;5.45;;
70667;SDS011;58242;51.250;-1.118;2023-06-10T00:55:53;6.50;;;4.85;;
70667;SDS011;58242;51.250;-1.118;2023-06-10T00:58:18;10.70;;;5.60;;
70667;SDS011;58242;51.250;-1.118;2023-06-10T01:00:44;6.22;;;5.10;;
70667;SDS011;58242;51.250;-1.118;2023-06-10T01:03:10;5.40;;;4.50;;
70667;SDS011;58242;51.250;-1.118;2023-06-10T01:05:37;9.57;;;5.03;;
70667;SDS011;58242;51.250;-1.118;2023-06-10T01:08:07;5.13;;;4.50;;
70667;SDS011;58242;51.250;-1.118;2023-06-10T01:10:47;7.25;;;5.35;;
70667;SDS011;58242;51.250;-1.118;2023-06-10T01:13:17;10.45;;;5.85;;
70667;SDS011;58242;51.250;-1.118;2023-06-10T01:15:45;10.40;;;5.38;;
70667;SDS011;58242;51.250;-1.118;2023-06-10T01:18:11;5.65;;;5.05;;
70667;SDS011;58242;51.250;-1.118;2023-06-10T01:23:06;7.97;;;5.78;;
70667;SDS011;58242;51.250;-1.118;2023-06-10T01:25:32;11.13;;;6.00;;
70667;SDS011;58242;51.250;-1.118;2023-06-10T01:30:27;7.63;;;5.30;;
70667;SDS011;58242;51.250;-1.118;2023-06-10T01:32:58;12.00;;;6.30;;
70667;SDS011;58242;51.250;-1.118;2023-06-10T01:35:25;9.73;;;5.57;;
70667;SDS011;58242;51.250;-1.118;2023-06-10T01:37:53;7.88;;;5.00;;
70667;SDS011;58242;51.250;-1.118;2023-06-10T01:40:21;8.07;;;5.85;;
70667;SDS011;58242;51.250;-1.118;2023-06-10T01:42:48;7.25;;;5.53;;
70667;SDS011;58242;51.250;-1.118;2023-06-10T01:45:14;6.50;;;4.47;;
70667;SDS011;58242;51.250;-1.118;2023-06-10T01:47:39;9.68;;;5.03;;
70667;SDS011;58242;51.250;-1.118;2023-06-10T01:50:04;6.07;;;4.63;;
70667;SDS011;58242;51.250;-1.118;2023-06-10T01:52:30;8.35;;;5.68;;
70667;SDS011;58242;51.250;-1.118;2023-06-10T01:54:55;7.05;;;5.43;;
70667;SDS011;58242;51.250;-1.118;2023-06-10T01:57:21;8.18;;;5.70;;
70667;SDS011;58242;51.250;-1.118;2023-06-10T01:59:46;10.80;;;5.22;;
70667;SDS011;58242;51.250;-1.118;2023-06-10T02:02:11;6.78;;;5.20;;
70667;SDS011;58242;51.250;-1.118;2023-06-10T02:04:37;9.27;;;5.32;;
70667;SDS011;58242;51.250;-1.118;2023-06-10T02:07:02;6.78;;;4.88;;
70667;SDS011;58242;51.250;-1.118;2023-06-10T02:09:29;9.55;;;5.47;;
70667;SDS011;58242;51.250;-1.118;2023-06-10T02:11:55;7.57;;;4.80;;
70667;SDS011;58242;51.250;-1.118;2023-06-10T02:14:20;7.95;;;5.75;;
70667;SDS011;58242;51.250;-1.118;2023-06-10T02:16:46;9.70;;;5.18;;
70667;SDS011;58242;51.250;-1.118;2023-06-10T02:19:12;8.10;;;4.55;;
70667;SDS011;58242;51.250;-1.118;2023-06-10T02:21:37;4.90;;;4.45;;
70667;SDS011;58242;51.250;-1.118;2023-06-10T02:24:03;9.52;;;5.35;;
70667;SDS011;58242;51.250;-1.118;2023-06-10T02:26:29;9.85;;;5.90;;
70667;SDS011;58242;51.250;-1.118;2023-06-10T02:28:54;8.43;;;4.78;;
70667;SDS011;58242;51.250;-1.118;2023-06-10T02:31:20;9.20;;;5.03;;
70667;SDS011;58242;51.250;-1.118;2023-06-10T02:33:45;8.02;;;4.55;;
70667;SDS011;58242;51.250;-1.118;2023-06-10T02:36:11;8.50;;;5.43;;
70667;SDS011;58242;51.250;-1.118;2023-06-10T02:38:38;9.30;;;5.47;;
70667;SDS011;58242;51.250;-1.118;2023-06-10T02:41:05;10.60;;;5.65;;
70667;SDS011;58242;51.250;-1.118;2023-06-10T02:43:31;10.88;;;6.40;;
70667;SDS011;58242;51.250;-1.118;2023-06-10T02:45:56;9.57;;;6.00;;
70667;SDS011;58242;51.250;-1.118;2023-06-10T02:48:23;5.35;;;4.82;;
70667;SDS011;58242;51.250;-1.118;2023-06-10T02:50:49;7.45;;;4.82;;
70667;SDS011;58242;51.250;-1.118;2023-06-10T02:53:14;7.25;;;4.70;;
70667;SDS011;58242;51.250;-1.118;2023-06-10T02:55:40;9.52;;;5.47;;
70667;SDS011;58242;51.250;-1.118;2023-06-10T02:58:06;10.30;;;5.35;;
70667;SDS011;58242;51.250;-1.118;2023-06-10T03:00:32;8.38;;;4.95;;
70667;SDS011;58242;51.250;-1.118;2023-06-10T03:02:58;11.98;;;5.60;;
70667;SDS011;58242;51.250;-1.118;2023-06-10T03:05:27;7.07;;;4.47;;
70667;SDS011;58242;51.250;-1.118;2023-06-10T03:07:53;6.60;;;5.57;;
70667;SDS011;58242;51.250;-1.118;2023-06-10T03:10:18;8.70;;;5.28;;
70667;SDS011;58242;51.250;-1.118;2023-06-10T03:12:44;8.68;;;6.00;;
70667;SDS011;58242;51.250;-1.118;2023-06-10T03:15:09;6.75;;;5.50;;
70667;SDS011;58242;51.250;-1.118;2023-06-10T03:17:34;6.40;;;4.57;;
70667;SDS011;58242;51.250;-1.118;2023-06-10T03:20:00;6.78;;;5.22;;
70667;SDS011;58242;51.250;-1.118;2023-06-10T03:22:25;10.88;;;5.85;;
70667;SDS011;58242;51.250;-1.118;2023-06-10T03:24:51;6.07;;;5.47;;
70667;SDS011;58242;51.250;-1.118;2023-06-10T03:27:16;7.45;;;4.95;;
70667;SDS011;58242;51.250;-1.118;2023-06-10T03:29:42;9.60;;;5.88;;
70667;SDS011;58242;51.250;-1.118;2023-06-10T03:32:08;10.63;;;6.75;;
70667;SDS011;58242;51.250;-1.118;2023-06-10T03:34:33;7.03;;;5.50;;
70667;SDS011;58242;51.250;-1.118;2023-06-10T03:36:59;10.52;;;6.43;;
70667;SDS011;58242;51.250;-1.118;2023-06-10T03:39:25;8.63;;;6.00;;
70667;SDS011;58242;51.250;-1.118;2023-06-10T03:41:53;10.65;;;6.50;;
70667;SDS011;58242;51.250;-1.118;2023-06-10T03:44:19;10.95;;;6.35;;
70667;SDS011;58242;51.250;-1.118;2023-06-10T03:46:44;12.00;;;7.35;;
70667;SDS011;58242;51.250;-1.118;2023-06-10T03:49:10;7.75;;;6.15;;
70667;SDS011;58242;51.250;-1.118;2023-06-10T03:51:36;9.52;;;5.93;;
70667;SDS011;58242;51.250;-1.118;2023-06-10T03:54:01;11.23;;;6.95;;
70667;SDS011;58242;51.250;-1.118;2023-06-10T03:56:27;7.55;;;5.30;;
70667;SDS011;58242;51.250;-1.118;2023-06-10T03:58:53;14.80;;;6.50;;
70667;SDS011;58242;51.250;-1.118;2023-06-10T04:01:19;7.80;;;6.00;;
70667;SDS011;58242;51.250;-1.118;2023-06-10T04:03:46;11.98;;;6.88;;
70667;SDS011;58242;51.250;-1.118;2023-06-10T04:06:13;9.50;;;6.15;;
70667;SDS011;58242;51.250;-1.118;2023-06-10T04:08:39;8.80;;;5.80;;
70667;SDS011;58242;51.250;-1.118;2023-06-10T04:11:04;9.82;;;6.57;;
70667;SDS011;58242;51.250;-1.118;2023-06-10T04:13:29;11.57;;;5.68;;
70667;SDS011;58242;51.250;-1.118;2023-06-10T04:15:54;9.55;;;6.35;;
70667;SDS011;58242;51.250;-1.118;2023-06-10T04:18:20;15.02;;;6.07;;
70667;SDS011;58242;51.250;-1.118;2023-06-10T04:20:46;9.68;;;6.00;;
70667;SDS011;58242;51.250;-1.118;2023-06-10T04:23:12;11.77;;;6.25;;
70667;SDS011;58242;51.250;-1.118;2023-06-10T04:25:37;7.90;;;4.93;;
70667;SDS011;58242;51.250;-1.118;2023-06-10T04:28:02;9.02;;;5.30;;
70667;SDS011;58242;51.250;-1.118;2023-06-10T04:30:28;7.00;;;5.05;;
70667;SDS011;58242;51.250;-1.118;2023-06-10T04:32:53;7.88;;;5.50;;
70667;SDS011;58242;51.250;-1.118;2023-06-10T04:35:19;7.55;;;5.32;;
70667;SDS011;58242;51.250;-1.118;2023-06-10T04:37:44;8.20;;;6.10;;
70667;SDS011;58242;51.250;-1.118;2023-06-10T04:40:10;9.80;;;5.72;;
70667;SDS011;58242;51.250;-1.118;2023-06-10T04:42:36;11.77;;;6.32;;
70667;SDS011;58242;51.250;-1.118;2023-06-10T04:45:01;10.80;;;6.55;;
70667;SDS011;58242;51.250;-1.118;2023-06-10T04:47:28;8.48;;;5.80;;
70667;SDS011;58242;51.250;-1.118;2023-06-10T04:49:54;12.07;;;5.97;;
70667;SDS011;58242;51.250;-1.118;2023-06-10T04:52:19;6.70;;;5.13;;
70667;SDS011;58242;51.250;-1.118;2023-06-10T04:54:44;8.43;;;5.00;;
70667;SDS011;58242;51.250;-1.118;2023-06-10T04:57:10;8.63;;;5.20;;
70667;SDS011;58242;51.250;-1.118;2023-06-10T04:59:36;12.85;;;6.65;;
70667;SDS011;58242;51.250;-1.118;2023-06-10T05:02:03;9.70;;;5.47;;
70667;SDS011;58242;51.250;-1.118;2023-06-10T05:04:29;10.80;;;6.28;;
70667;SDS011;58242;51.250;-1.118;2023-06-10T05:06:55;8.38;;;5.57;;
70667;SDS011;58242;51.250;-1.118;2023-06-10T05:09:20;10.45;;;5.88;;
70667;SDS011;58242;51.250;-1.118;2023-06-10T05:11:46;13.52;;;6.65;;
70667;SDS011;58242;51.250;-1.118;2023-06-10T05:14:11;9.73;;;5.45;;
70667;SDS011;58242;51.250;-1.118;2023-06-10T05:16:36;7.90;;;5.95;;
70667;SDS011;58242;51.250;-1.118;2023-06-10T05:19:03;6.22;;;4.90;;
70667;SDS011;58242;51.250;-1.118;2023-06-10T05:21:29;8.88;;;5.47;;
70667;SDS011;58242;51.250;-1.118;2023-06-10T05:23:54;15.38;;;6.63;;
70667;SDS011;58242;51.250;-1.118;2023-06-10T05:26:20;11.60;;;7.38;;
70667;SDS011;58242;51.250;-1.118;2023-06-10T05:28:46;10.27;;;6.03;;
70667;SDS011;58242;51.250;-1.118;2023-06-10T05:31:11;11.13;;;6.00;;
70667;SDS011;58242;51.250;-1.118;2023-06-10T05:33:37;7.85;;;4.80;;
70667;SDS011;58242;51.250;-1.118;2023-06-10T05:36:02;8.77;;;5.82;;
70667;SDS011;58242;51.250;-1.118;2023-06-10T05:38:27;12.05;;;6.05;;
70667;SDS011;58242;51.250;-1.118;2023-06-10T05:40:53;11.13;;;5.95;;
70667;SDS011;58242;51.250;-1.118;2023-06-10T05:43:18;9.60;;;6.25;;
70667;SDS011;58242;51.250;-1.118;2023-06-10T05:45:43;13.55;;;7.28;;
70667;SDS011;58242;51.250;-1.118;2023-06-10T05:48:09;6.88;;;5.35;;
70667;SDS011;58242;51.250;-1.118;2023-06-10T05:50:34;11.70;;;5.35;;
70667;SDS011;58242;51.250;-1.118;2023-06-10T05:55:28;12.00;;;6.38;;
70667;SDS011;58242;51.250;-1.118;2023-06-10T05:58:00;11.38;;;5.53;;
70667;SDS011;58242;51.250;-1.118;2023-06-10T06:00:26;6.65;;;5.18;;
70667;SDS011;58242;51.250;-1.118;2023-06-10T06:02:52;7.90;;;5.10;;
70667;SDS011;58242;51.250;-1.118;2023-06-10T06:05:19;9.25;;;6.20;;
70667;SDS011;58242;51.250;-1.118;2023-06-10T06:07:44;8.52;;;5.43;;
70667;SDS011;58242;51.250;-1.118;2023-06-10T06:10:10;10.90;;;6.55;;
70667;SDS011;58242;51.250;-1.118;2023-06-10T06:12:35;8.05;;;6.00;;
70667;SDS011;58242;51.250;-1.118;2023-06-10T06:15:00;11.00;;;6.25;;
70667;SDS011;58242;51.250;-1.118;2023-06-10T06:17:26;11.00;;;6.30;;
70667;SDS011;58242;51.250;-1.118;2023-06-10T06:19:51;11.40;;;5.80;;
70667;SDS011;58242;51.250;-1.118;2023-06-10T06:22:16;6.47;;;5.35;;
70667;SDS011;58242;51.250;-1.118;2023-06-10T06:24:46;9.15;;;5.97;;
70667;SDS011;58242;51.250;-1.118;2023-06-10T06:27:11;10.52;;;5.60;;
70667;SDS011;58242;51.250;-1.118;2023-06-10T06:29:37;8.75;;;5.50;;
70667;SDS011;58242;51.250;-1.118;2023-06-10T06:32:02;7.85;;;5.07;;
70667;SDS011;58242;51.250;-1.118;2023-06-10T06:34:28;11.63;;;5.60;;
70667;SDS011;58242;51.250;-1.118;2023-06-10T06:36:53;11.00;;;5.75;;
70667;SDS011;58242;51.250;-1.118;2023-06-10T06:39:18;11.05;;;5.70;;
70667;SDS011;58242;51.250;-1.118;2023-06-10T06:41:44;9.98;;;5.68;;
70667;SDS011;58242;51.250;-1.118;2023-06-10T06:44:09;10.93;;;6.63;;
70667;SDS011;58242;51.250;-1.118;2023-06-10T06:46:34;8.70;;;5.07;;
70667;SDS011;58242;51.250;-1.118;2023-06-10T06:49:00;12.75;;;5.97;;
70667;SDS011;58242;51.250;-1.118;2023-06-10T06:51:25;8.15;;;5.47;;
70667;SDS011;58242;51.250;-1.118;2023-06-10T06:53:51;9.65;;;6.25;;
70667;SDS011;58242;51.250;-1.118;2023-06-10T06:56:18;6.38;;;4.72;;
70667;SDS011;58242;51.250;-1.118;2023-06-10T06:58:44;8.40;;;5.03;;
70667;SDS011;58242;51.250;-1.118;2023-06-10T07:01:09;9.55;;;6.60;;
70667;SDS011;58242;51.250;-1.118;2023-06-10T07:03:35;9.50;;;5.60;;
70667;SDS011;58242;51.250;-1.118;2023-06-10T07:06:00;6.65;;;5.03;;
70667;SDS011;58242;51.250;-1.118;2023-06-10T07:08:25;11.02;;;5.90;;
70667;SDS011;58242;51.250;-1.118;2023-06-10T07:10:51;7.78;;;5.25;;
70667;SDS011;58242;51.250;-1.118;2023-06-10T07:13:16;8.38;;;5.80;;
70667;SDS011;58242;51.250;-1.118;2023-06-10T07:15:41;8.20;;;5.65;;
70667;SDS011;58242;51.250;-1.118;2023-06-10T07:18:07;5.70;;;5.03;;
70667;SDS011;58242;51.250;-1.118;2023-06-10T07:20:32;6.85;;;4.97;;
70667;SDS011;58242;51.250;-1.118;2023-06-10T07:22:57;9.70;;;5.03;;
70667;SDS011;58242;51.250;-1.118;2023-06-10T07:25:22;5.40;;;4.25;;
70667;SDS011;58242;51.250;-1.118;2023-06-10T07:27:48;4.38;;;3.90;;
70667;SDS011;58242;51.250;-1.118;2023-06-10T07:30:13;6.35;;;4.82;;
70667;SDS011;58242;51.250;-1.118;2023-06-10T07:32:38;6.03;;;5.22;;
70667;SDS011;58242;51.250;-1.118;2023-06-10T07:35:07;5.20;;;4.70;;
70667;SDS011;58242;51.250;-1.118;2023-06-10T07:37:33;7.55;;;4.93;;
70667;SDS011;58242;51.250;-1.118;2023-06-10T07:39:59;5.97;;;4.35;;
70667;SDS011;58242;51.250;-1.118;2023-06-10T07:42:25;5.95;;;4.70;;
70667;SDS011;58242;51.250;-1.118;2023-06-10T07:44:50;7.30;;;4.60;;
70667;SDS011;58242;51.250;-1.118;2023-06-10T07:47:16;4.90;;;4.10;;
70667;SDS011;58242;51.250;-1.118;2023-06-10T07:49:41;7.07;;;4.28;;
70667;SDS011;58242;51.250;-1.118;2023-06-10T07:52:07;8.38;;;4.85;;
70667;SDS011;58242;51.250;-1.118;2023-06-10T07:54:32;6.72;;;5.25;;
70667;SDS011;58242;51.250;-1.118;2023-06-10T07:56:58;5.90;;;4.72;;
70667;SDS011;58242;51.250;-1.118;2023-06-10T07:59:23;7.20;;;4.63;;
70667;SDS011;58242;51.250;-1.118;2023-06-10T08:01:50;7.05;;;4.20;;
70667;SDS011;58242;51.250;-1.118;2023-06-10T08:04:15;6.22;;;4.85;;
70667;SDS011;58242;51.250;-1.118;2023-06-10T08:06:41;6.72;;;4.68;;
70667;SDS011;58242;51.250;-1.118;2023-06-10T08:09:06;6.53;;;4.70;;
70667;SDS011;58242;51.250;-1.118;2023-06-10T08:11:31;4.68;;;4.18;;
70667;SDS011;58242;51.250;-1.118;2023-06-10T08:13:57;7.60;;;4.75;;
70667;SDS011;58242;51.250;-1.118;2023-06-10T08:16:22;5.68;;;4.32;;
70667;SDS011;58242;51.250;-1.118;2023-06-10T08:18:47;6.18;;;4.07;;
70667;SDS011;58242;51.250;-1.118;2023-06-10T08:21:12;8.32;;;5.55;;
70667;SDS011;58242;51.250;-1.118;2023-06-10T08:23:38;7.10;;;4.60;;
70667;SDS011;58242;51.250;-1.118;2023-06-10T08:26:04;6.55;;;4.55;;
70667;SDS011;58242;51.250;-1.118;2023-06-10T08:28:29;5.18;;;4.03;;
70667;SDS011;58242;51.250;-1.118;2023-06-10T08:30:54;6.95;;;4.18;;
70667;SDS011;58242;51.250;-1.118;2023-06-10T08:33:20;6.28;;;4.38;;
70667;SDS011;58242;51.250;-1.118;2023-06-10T08:35:45;4.28;;;3.88;;
70667;SDS011;58242;51.250;-1.118;2023-06-10T08:38:10;7.95;;;4.40;;
70667;SDS011;58242;51.250;-1.118;2023-06-10T08:40:36;4.95;;;4.10;;
70667;SDS011;58242;51.250;-1.118;2023-06-10T08:45:40;5.38;;;4.00;;
70667;SDS011;58242;51.250;-1.118;2023-06-10T08:48:08;5.87;;;4.03;;
70667;SDS011;58242;51.250;-1.118;2023-06-10T08:50:36;3.60;;;3.20;;
70667;SDS011;58242;51.250;-1.118;2023-06-10T08:53:04;5.40;;;3.90;;
70667;SDS011;58242;51.250;-1.118;2023-06-10T08:55:32;5.85;;;4.22;;
70667;SDS011;58242;51.250;-1.118;2023-06-10T08:58:00;5.43;;;4.03;;
70667;SDS011;58242;51.250;-1.118;2023-06-10T09:00:26;4.72;;;4.22;;
70667;SDS011;58242;51.250;-1.118;2023-06-10T09:02:52;5.63;;;4.03;;
70667;SDS011;58242;51.250;-1.118;2023-06-10T09:05:17;4.75;;;4.00;;
70667;SDS011;58242;51.250;-1.118;2023-06-10T09:07:43;4.45;;;3.83;;
70667;SDS011;58242;51.250;-1.118;2023-06-10T09:10:09;5.85;;;3.65;;
70667;SDS011;58242;51.250;-1.118;2023-06-10T09:12:36;8.43;;;4.55;;
70667;SDS011;58242;51.250;-1.118;2023-06-10T09:15:03;7.13;;;4.30;;
70667;SDS011;58242;51.250;-1.118;2023-06-10T09:17:29;4.40;;;4.00;;
70667;SDS011;58242;51.250;-1.118;2023-06-10T09:19:54;4.20;;;3.80;;
70667;SDS011;58242;51.250;-1.118;2023-06-10T09:22:21;5.15;;;4.50;;
70667;SDS011;58242;51.250;-1.118;2023-06-10T09:24:47;4.47;;;4.07;;
70667;SDS011;58242;51.250;-1.118;2023-06-10T09:27:12;5.22;;;4.35;;
70667;SDS011;58242;51.250;-1.118;2023-06-10T09:29:51;3.70;;;3.40;;
70667;SDS011;58242;51.250;-1.118;2023-06-10T09:32:17;4.72;;;4.13;;
70667;SDS011;58242;51.250;-1.118;2023-06-10T09:34:43;4.60;;;3.58;;
70667;SDS011;58242;51.250;-1.118;2023-06-10T09:37:09;4.20;;;3.33;;
70667;SDS011;58242;51.250;-1.118;2023-06-10T09:39:37;4.78;;;3.70;;
70667;SDS011;58242;51.250;-1.118;2023-06-10T09:42:10;3.83;;;3.42;;
70667;SDS011;58242;51.250;-1.118;2023-06-10T09:44:41;4.32;;;3.83;;
70667;SDS011;58242;51.250;-1.118;2023-06-10T09:47:06;4.53;;;3.65;;
70667;SDS011;58242;51.250;-1.118;2023-06-10T09:49:32;4.90;;;3.72;;
70667;SDS011;58242;51.250;-1.118;2023-06-10T09:51:57;3.63;;;3.33;;
70667;SDS011;58242;51.250;-1.118;2023-06-10T09:54:23;4.38;;;3.58;;
70667;SDS011;58242;51.250;-1.118;2023-06-10T09:56:49;5.13;;;3.40;;
70667;SDS011;58242;51.250;-1.118;2023-06-10T10:01:56;3.55;;;3.03;;
70667;SDS011;58242;51.250;-1.118;2023-06-10T10:04:25;3.22;;;2.92;;
70667;SDS011;58242;51.250;-1.118;2023-06-10T10:06:50;4.32;;;3.92;;
70667;SDS011;58242;51.250;-1.118;2023-06-10T10:09:16;3.80;;;3.50;;
70667;SDS011;58242;51.250;-1.118;2023-06-10T10:11:41;4.95;;;3.95;;
70667;SDS011;58242;51.250;-1.118;2023-06-10T10:14:09;4.68;;;3.53;;
70667;SDS011;58242;51.250;-1.118;2023-06-10T10:16:39;3.50;;;3.20;;
70667;SDS011;58242;51.250;-1.118;2023-06-10T10:19:18;4.72;;;3.88;;
70667;SDS011;58242;51.250;-1.118;2023-06-10T10:22:10;4.72;;;3.80;;
70667;SDS011;58242;51.250;-1.118;2023-06-10T10:24:40;5.00;;;4.15;;
70667;SDS011;58242;51.250;-1.118;2023-06-10T10:27:11;5.70;;;3.50;;
70667;SDS011;58242;51.250;-1.118;2023-06-10T10:29:51;5.95;;;3.13;;
70667;SDS011;58242;51.250;-1.118;2023-06-10T10:37:17;3.70;;;3.25;;
70667;SDS011;58242;51.250;-1.118;2023-06-10T10:39:44;4.80;;;3.15;;
70667;SDS011;58242;51.250;-1.118;2023-06-10T10:42:10;3.47;;;3.15;;
70667;SDS011;58242;51.250;-1.118;2023-06-10T10:44:37;3.30;;;3.05;;
70667;SDS011;58242;51.250;-1.118;2023-06-10T10:47:04;3.40;;;2.92;;
70667;SDS011;58242;51.250;-1.118;2023-06-10T10:49:33;3.47;;;2.80;;
70667;SDS011;58242;51.250;-1.118;2023-06-10T10:52:00;3.22;;;3.03;;
70667;SDS011;58242;51.250;-1.118;2023-06-10T10:54:33;3.22;;;2.92;;
70667;SDS011;58242;51.250;-1.118;2023-06-10T10:57:10;3.78;;;3.08;;
70667;SDS011;58242;51.250;-1.118;2023-06-10T11:02:36;3.10;;;2.42;;
70667;SDS011;58242;51.250;-1.118;2023-06-10T11:05:14;2.80;;;2.60;;
70667;SDS011;58242;51.250;-1.118;2023-06-10T11:07:52;3.33;;;2.60;;
70667;SDS011;58242;51.250;-1.118;2023-06-10T11:10:32;2.70;;;2.50;;
70667;SDS011;58242;51.250;-1.118;2023-06-10T11:12:59;3.05;;;2.67;;
70667;SDS011;58242;51.250;-1.118;2023-06-10T11:15:30;3.22;;;2.92;;
70667;SDS011;58242;51.250;-1.118;2023-06-10T11:31:22;3.22;;;2.92;;
70667;SDS011;58242;51.250;-1.118;2023-06-10T11:33:48;4.28;;;2.85;;
70667;SDS011;58242;51.250;-1.118;2023-06-10T11:36:18;3.92;;;3.10;;
70667;SDS011;58242;51.250;-1.118;2023-06-10T11:38:44;4.03;;;3.30;;
70667;SDS011;58242;51.250;-1.118;2023-06-10T11:41:13;4.03;;;2.90;;
70667;SDS011;58242;51.250;-1.118;2023-06-10T11:43:43;3.30;;;3.03;;
70667;SDS011;58242;51.250;-1.118;2023-06-10T11:46:10;3.38;;;3.08;;
70667;SDS011;58242;51.250;-1.118;2023-06-10T11:48:36;3.05;;;2.75;;
70667;SDS011;58242;51.250;-1.118;2023-06-10T11:51:06;3.67;;;3.13;;
70667;SDS011;58242;51.250;-1.118;2023-06-10T11:53:32;3.63;;;3.10;;
70667;SDS011;58242;51.250;-1.118;2023-06-10T11:55:57;3.55;;;3.25;;
70667;SDS011;58242;51.250;-1.118;2023-06-10T11:58:23;3.63;;;3.17;;
70667;SDS011;58242;51.250;-1.118;2023-06-10T12:00:49;2.75;;;2.55;;
70667;SDS011;58242;51.250;-1.118;2023-06-10T12:03:16;2.80;;;2.60;;
70667;SDS011;58242;51.250;-1.118;2023-06-10T12:05:58;3.75;;;3.45;;
70667;SDS011;58242;51.250;-1.118;2023-06-10T12:08:25;3.13;;;2.92;;
70667;SDS011;58242;51.250;-1.118;2023-06-10T12:10:52;4.50;;;3.30;;
70667;SDS011;58242;51.250;-1.118;2023-06-10T12:13:19;3.65;;;3.35;;
70667;SDS011;58242;51.250;-1.118;2023-06-10T12:15:44;4.03;;;3.30;;
70667;SDS011;58242;51.250;-1.118;2023-06-10T12:18:17;3.72;;;3.42;;
70667;SDS011;58242;51.250;-1.118;2023-06-10T12:20:43;2.85;;;2.55;;
70667;SDS011;58242;51.250;-1.118;2023-06-10T12:23:09;3.85;;;3.55;;
70667;SDS011;58242;51.250;-1.118;2023-06-10T12:25:36;3.35;;;3.05;;
70667;SDS011;58242;51.250;-1.118;2023-06-10T12:28:05;3.53;;;3.05;;
70667;SDS011;58242;51.250;-1.118;2023-06-10T12:30:32;3.30;;;3.00;;
70667;SDS011;58242;51.250;-1.118;2023-06-10T12:32:58;2.80;;;2.60;;
70667;SDS011;58242;51.250;-1.118;2023-06-10T12:35:27;2.75;;;2.55;;
70667;SDS011;58242;51.250;-1.118;2023-06-10T12:40:29;3.10;;;2.90;;
70667;SDS011;58242;51.250;-1.118;2023-06-10T12:42:57;2.75;;;2.55;;
70667;SDS011;58242;51.250;-1.118;2023-06-10T12:45:42;2.70;;;2.50;;
70667;SDS011;58242;51.250;-1.118;2023-06-10T12:48:11;2.67;;;2.50;;
70667;SDS011;58242;51.250;-1.118;2023-06-10T12:50:38;2.70;;;2.50;;
70667;SDS011;58242;51.250;-1.118;2023-06-10T12:53:05;4.10;;;1.92;;
70667;SDS011;58242;51.250;-1.118;2023-06-10T12:55:31;2.20;;;2.10;;
70667;SDS011;58242;51.250;-1.118;2023-06-10T12:57:57;2.58;;;2.45;;
70667;SDS011;58242;51.250;-1.118;2023-06-10T13:00:24;2.20;;;2.10;;
70667;SDS011;58242;51.250;-1.118;2023-06-10T13:02:54;2.10;;;2.00;;
70667;SDS011;58242;51.250;-1.118;2023-06-10T13:05:20;2.30;;;2.20;;
70667;SDS011;58242;51.250;-1.118;2023-06-10T13:07:46;1.90;;;1.80;;
70667;SDS011;58242;51.250;-1.118;2023-06-10T13:10:12;2.67;;;2.50;;
70667;SDS011;58242;51.250;-1.118;2023-06-10T13:12:39;2.42;;;2.33;;
70667;SDS011;58242;51.250;-1.118;2023-06-10T13:15:05;2.13;;;2.03;;
70667;SDS011;58242;51.250;-1.118;2023-06-10T13:17:30;2.20;;;2.10;;
70667;SDS011;58242;51.250;-1.118;2023-06-10T13:19:56;2.97;;;2.17;;
70667;SDS011;58242;51.250;-1.118;2023-06-10T13:22:21;2.67;;;2.50;;
70667;SDS011;58242;51.250;-1.118;2023-06-10T13:24:49;2.13;;;2.03;;
70667;SDS011;58242;51.250;-1.118;2023-06-10T13:27:14;2.40;;;2.30;;
70667;SDS011;58242;51.250;-1.118;2023-06-10T13:29:40;2.13;;;1.98;;
70667;SDS011;58242;51.250;-1.118;2023-06-10T13:32:06;2.25;;;2.15;;
70667;SDS011;58242;51.250;-1.118;2023-06-10T13:34:32;2.40;;;2.30;;
70667;SDS011;58242;51.250;-1.118;2023-06-10T13:36:57;2.22;;;2.13;;
70667;SDS011;58242;51.250;-1.118;2023-06-10T13:39:23;2.55;;;2.45;;
70667;SDS011;58242;51.250;-1.118;2023-06-10T13:41:49;2.25;;;2.15;;
70667;SDS011;58242;51.250;-1.118;2023-06-10T13:44:14;2.10;;;2.00;;
70667;SDS011;58242;51.250;-1.118;2023-06-10T13:46:40;2.00;;;1.90;;
70667;SDS011;58242;51.250;-1.118;2023-06-10T13:49:05;2.30;;;2.20;;
70667;SDS011;58242;51.250;-1.118;2023-06-10T13:51:31;2.25;;;2.15;;
70667;SDS011;58242;51.250;-1.118;2023-06-10T13:53:56;2.83;;;2.63;;
70667;SDS011;58242;51.250;-1.118;2023-06-10T13:56:22;2.22;;;2.13;;
70667;SDS011;58242;51.250;-1.118;2023-06-10T13:58:48;2.55;;;2.45;;
70667;SDS011;58242;51.250;-1.118;2023-06-10T14:01:13;1.90;;;1.80;;
70667;SDS011;58242;51.250;-1.118;2023-06-10T14:03:39;2.78;;;2.47;;
70667;SDS011;58242;51.250;-1.118;2023-06-10T14:06:04;2.63;;;2.53;;
70667;SDS011;58242;51.250;-1.118;2023-06-10T14:08:30;1.95;;;1.85;;
70667;SDS011;58242;51.250;-1.118;2023-06-10T14:10:55;2.28;;;2.17;;
70667;SDS011;58242;51.250;-1.118;2023-06-10T14:13:21;2.70;;;2.60;;
70667;SDS011;58242;51.250;-1.118;2023-06-10T14:15:46;2.28;;;2.08;;
70667;SDS011;58242;51.250;-1.118;2023-06-10T14:18:12;2.55;;;2.40;;
70667;SDS011;58242;51.250;-1.118;2023-06-10T14:20:37;2.45;;;2.28;;
70667;SDS011;58242;51.250;-1.118;2023-06-10T14:23:03;2.20;;;2.10;;
70667;SDS011;58242;51.250;-1.118;2023-06-10T14:25:28;2.15;;;2.05;;
70667;SDS011;58242;51.250;-1.118;2023-06-10T14:27:54;2.40;;;2.30;;
70667;SDS011;58242;51.250;-1.118;2023-06-10T14:30:19;3.45;;;2.45;;
70667;SDS011;58242;51.250;-1.118;2023-06-10T14:32:45;2.05;;;1.95;;
70667;SDS011;58242;51.250;-1.118;2023-06-10T14:35:10;2.20;;;2.10;;
70667;SDS011;58242;51.250;-1.118;2023-06-10T14:37:36;2.30;;;2.20;;
70667;SDS011;58242;51.250;-1.118;2023-06-10T14:40:02;2.40;;;2.25;;
70667;SDS011;58242;51.250;-1.118;2023-06-10T14:42:29;2.67;;;2.47;;
70667;SDS011;58242;51.250;-1.118;2023-06-10T14:44:54;4.78;;;2.78;;
70667;SDS011;58242;51.250;-1.118;2023-06-10T14:47:20;2.67;;;2.50;;
70667;SDS011;58242;51.250;-1.118;2023-06-10T14:49:45;2.40;;;2.30;;
70667;SDS011;58242;51.250;-1.118;2023-06-10T14:52:11;2.53;;;2.42;;
70667;SDS011;58242;51.250;-1.118;2023-06-10T14:54:37;2.90;;;2.70;;
70667;SDS011;58242;51.250;-1.118;2023-06-10T14:57:02;2.65;;;2.55;;
70667;SDS011;58242;51.250;-1.118;2023-06-10T14:59:28;3.90;;;3.70;;
70667;SDS011;58242;51.250;-1.118;2023-06-10T15:01:53;3.15;;;3.00;;
70667;SDS011;58242;51.250;-1.118;2023-06-10T15:04:19;2.72;;;2.63;;
70667;SDS011;58242;51.250;-1.118;2023-06-10T15:06:44;3.15;;;2.95;;
70667;SDS011;58242;51.250;-1.118;2023-06-10T15:09:10;3.10;;;2.90;;